sensor_id;sensor_type;location;lat;lon;timestamp;P1;durP1;ratioP1;P2;durP2;ratioP2
809;SDS011;387;48.772;9.186;2023-08-24T00:00:37;11.80;;;8.37;;
809;SDS011;387;48.772;9.186;2023-08-24T00:03:05;13.60;;;7.57;;
809;SDS011;387;48.772;9.186;2023-08-24T00:05:35;7.53;;;6.80;;
809;SDS011;387;48.772;9.186;2023-08-24T00:08:02;11.27;;;7.63;;
809;SDS011;387;48.772;9.186;2023-08-24T00:10:29;12.73;;;7.13;;
809;SDS011;387;48.772;9.186;2023-08-24T00:12:54;14.20;;;8.87;;
809;SDS011;387;48.772;9.186;2023-08-24T00:15:20;14.90;;;8.00;;
809;SDS011;387;48.772;9.186;2023-08-24T00:17:46;12.97;;;8.30;;
809;SDS011;387;48.772;9.186;2023-08-24T00:20:11;13.10;;;8.20;;
809;SDS011;387;48.772;9.186;2023-08-24T00:22:37;13.53;;;8.53;;
809;SDS011;387;48.772;9.186;2023-08-24T00:25:03;13.57;;;9.03;;
809;SDS011;387;48.772;9.186;2023-08-24T00:27:30;10.87;;;8.50;;
809;SDS011;387;48.772;9.186;2023-08-24T00:29:56;10.83;;;8.97;;
809;SDS011;387;48.772;9.186;2023-08-24T00:32:22;12.77;;;9.70;;
809;SDS011;387;48.772;9.186;2023-08-24T00:34:48;11.93;;;9.33;;
809;SDS011;387;48.772;9.186;2023-08-24T00:37:14;11.40;;;9.17;;
809;SDS011;387;48.772;9.186;2023-08-24T00:39:40;14.17;;;8.93;;
809;SDS011;387;48.772;9.186;2023-08-24T00:42:06;9.57;;;7.37;;
809;SDS011;387;48.772;9.186;2023-08-24T00:44:32;16.17;;;8.10;;
809;SDS011;387;48.772;9.186;2023-08-24T00:46:59;12.23;;;8.40;;
809;SDS011;387;48.772;9.186;2023-08-24T00:49:25;11.13;;;9.00;;
809;SDS011;387;48.772;9.186;2023-08-24T00:51:51;12.83;;;8.40;;
809;SDS011;387;48.772;9.186;2023-08-24T00:54:17;15.77;;;9.17;;
809;SDS011;387;48.772;9.186;2023-08-24T00:56:43;10.00;;;8.63;;
809;SDS011;387;48.772;9.186;2023-08-24T00:59:09;11.50;;;9.00;;
809;SDS011;387;48.772;9.186;2023-08-24T01:01:35;12.03;;;9.17;;
809;SDS011;387;48.772;9.186;2023-08-24T01:04:00;11.30;;;9.00;;
809;SDS011;387;48.772;9.186;2023-08-24T01:06:27;14.50;;;10.37;;
809;SDS011;387;48.772;9.186;2023-08-24T01:08:53;12.90;;;10.27;;
809;SDS011;387;48.772;9.186;2023-08-24T01:14:13;12.07;;;9.00;;
809;SDS011;387;48.772;9.186;2023-08-24T01:16:46;13.37;;;9.47;;
809;SDS011;387;48.772;9.186;2023-08-24T01:19:37;14.60;;;9.60;;
809;SDS011;387;48.772;9.186;2023-08-24T01:22:07;16.13;;;9.33;;
809;SDS011;387;48.772;9.186;2023-08-24T01:24:46;11.70;;;8.47;;
809;SDS011;387;48.772;9.186;2023-08-24T01:27:18;14.40;;;9.00;;
809;SDS011;387;48.772;9.186;2023-08-24T01:29:45;11.47;;;9.40;;
809;SDS011;387;48.772;9.186;2023-08-24T01:32:11;12.33;;;10.10;;
809;SDS011;387;48.772;9.186;2023-08-24T01:34:37;13.53;;;9.83;;
809;SDS011;387;48.772;9.186;2023-08-24T01:37:06;10.10;;;9.07;;
809;SDS011;387;48.772;9.186;2023-08-24T01:39:39;12.80;;;9.20;;
809;SDS011;387;48.772;9.186;2023-08-24T01:42:10;12.13;;;9.67;;
809;SDS011;387;48.772;9.186;2023-08-24T01:44:39;12.40;;;9.10;;
809;SDS011;387;48.772;9.186;2023-08-24T01:47:10;12.23;;;9.47;;
809;SDS011;387;48.772;9.186;2023-08-24T01:49:37;14.97;;;9.00;;
809;SDS011;387;48.772;9.186;2023-08-24T01:52:05;13.90;;;9.90;;
809;SDS011;387;48.772;9.186;2023-08-24T01:54:31;15.97;;;10.43;;
809;SDS011;387;48.772;9.186;2023-08-24T01:56:57;10.83;;;9.10;;
809;SDS011;387;48.772;9.186;2023-08-24T01:59:22;12.90;;;9.10;;
809;SDS011;387;48.772;9.186;2023-08-24T02:01:48;11.03;;;8.50;;
809;SDS011;387;48.772;9.186;2023-08-24T02:04:14;13.17;;;8.37;;
809;SDS011;387;48.772;9.186;2023-08-24T02:06:39;11.00;;;9.17;;
809;SDS011;387;48.772;9.186;2023-08-24T02:09:05;10.80;;;8.97;;
809;SDS011;387;48.772;9.186;2023-08-24T02:11:30;11.30;;;9.03;;
809;SDS011;387;48.772;9.186;2023-08-24T02:13:56;15.47;;;10.70;;
809;SDS011;387;48.772;9.186;2023-08-24T02:16:21;12.63;;;10.40;;
809;SDS011;387;48.772;9.186;2023-08-24T02:18:47;15.90;;;10.80;;
809;SDS011;387;48.772;9.186;2023-08-24T02:21:13;12.43;;;10.30;;
809;SDS011;387;48.772;9.186;2023-08-24T02:23:40;16.30;;;10.50;;
809;SDS011;387;48.772;9.186;2023-08-24T02:26:06;13.00;;;9.63;;
809;SDS011;387;48.772;9.186;2023-08-24T02:28:32;20.80;;;9.10;;
809;SDS011;387;48.772;9.186;2023-08-24T02:31:01;11.10;;;8.40;;
809;SDS011;387;48.772;9.186;2023-08-24T02:33:28;12.70;;;9.07;;
809;SDS011;387;48.772;9.186;2023-08-24T02:35:54;12.80;;;9.13;;
809;SDS011;387;48.772;9.186;2023-08-24T02:38:20;11.10;;;9.13;;
809;SDS011;387;48.772;9.186;2023-08-24T02:40:45;10.63;;;8.80;;
809;SDS011;387;48.772;9.186;2023-08-24T02:43:11;15.60;;;10.10;;
809;SDS011;387;48.772;9.186;2023-08-24T02:45:37;13.03;;;9.87;;
809;SDS011;387;48.772;9.186;2023-08-24T02:48:03;14.37;;;10.27;;
809;SDS011;387;48.772;9.186;2023-08-24T02:50:28;15.63;;;10.60;;
809;SDS011;387;48.772;9.186;2023-08-24T02:52:54;16.37;;;9.53;;
809;SDS011;387;48.772;9.186;2023-08-24T02:55:20;12.80;;;9.97;;
809;SDS011;387;48.772;9.186;2023-08-24T02:57:45;13.20;;;9.73;;
809;SDS011;387;48.772;9.186;2023-08-24T03:00:11;11.60;;;9.87;;
809;SDS011;387;48.772;9.186;2023-08-24T03:02:38;13.17;;;9.40;;
809;SDS011;387;48.772;9.186;2023-08-24T03:05:04;13.73;;;10.80;;
809;SDS011;387;48.772;9.186;2023-08-24T03:07:30;12.47;;;9.93;;
809;SDS011;387;48.772;9.186;2023-08-24T03:09:56;12.00;;;10.40;;
809;SDS011;387;48.772;9.186;2023-08-24T03:12:21;12.60;;;10.20;;
809;SDS011;387;48.772;9.186;2023-08-24T03:14:47;12.93;;;10.60;;
809;SDS011;387;48.772;9.186;2023-08-24T03:17:16;13.60;;;10.37;;
809;SDS011;387;48.772;9.186;2023-08-24T03:19:42;14.43;;;10.93;;
809;SDS011;387;48.772;9.186;2023-08-24T03:22:08;14.27;;;10.10;;
809;SDS011;387;48.772;9.186;2023-08-24T03:24:33;12.23;;;9.97;;
809;SDS011;387;48.772;9.186;2023-08-24T03:26:59;15.10;;;10.80;;
809;SDS011;387;48.772;9.186;2023-08-24T03:29:24;11.20;;;9.90;;
809;SDS011;387;48.772;9.186;2023-08-24T03:31:50;14.63;;;10.53;;
809;SDS011;387;48.772;9.186;2023-08-24T03:34:15;13.63;;;10.03;;
809;SDS011;387;48.772;9.186;2023-08-24T03:36:41;24.13;;;12.70;;
809;SDS011;387;48.772;9.186;2023-08-24T03:39:07;13.93;;;10.37;;
809;SDS011;387;48.772;9.186;2023-08-24T03:41:33;14.20;;;11.10;;
809;SDS011;387;48.772;9.186;2023-08-24T03:43:59;12.47;;;10.10;;
809;SDS011;387;48.772;9.186;2023-08-24T03:46:25;15.07;;;11.47;;
809;SDS011;387;48.772;9.186;2023-08-24T03:48:50;11.17;;;9.20;;
809;SDS011;387;48.772;9.186;2023-08-24T03:51:16;14.17;;;10.70;;
809;SDS011;387;48.772;9.186;2023-08-24T03:53:41;13.93;;;10.10;;
809;SDS011;387;48.772;9.186;2023-08-24T03:56:07;15.07;;;10.37;;
809;SDS011;387;48.772;9.186;2023-08-24T03:58:32;11.63;;;8.93;;
809;SDS011;387;48.772;9.186;2023-08-24T04:00:58;12.33;;;9.50;;
809;SDS011;387;48.772;9.186;2023-08-24T04:03:24;11.67;;;8.97;;
809;SDS011;387;48.772;9.186;2023-08-24T04:05:49;13.60;;;10.73;;
809;SDS011;387;48.772;9.186;2023-08-24T04:08:15;14.80;;;10.77;;
809;SDS011;387;48.772;9.186;2023-08-24T04:10:41;12.63;;;10.10;;
809;SDS011;387;48.772;9.186;2023-08-24T04:13:06;16.50;;;11.00;;
809;SDS011;387;48.772;9.186;2023-08-24T04:15:32;15.23;;;10.80;;
809;SDS011;387;48.772;9.186;2023-08-24T04:17:58;17.67;;;11.27;;
809;SDS011;387;48.772;9.186;2023-08-24T04:20:23;13.67;;;10.20;;
809;SDS011;387;48.772;9.186;2023-08-24T04:22:49;14.47;;;10.77;;
809;SDS011;387;48.772;9.186;2023-08-24T04:25:14;16.10;;;11.70;;
809;SDS011;387;48.772;9.186;2023-08-24T04:27:40;14.63;;;10.97;;
809;SDS011;387;48.772;9.186;2023-08-24T04:30:06;13.87;;;11.10;;
809;SDS011;387;48.772;9.186;2023-08-24T04:32:36;13.50;;;10.07;;
809;SDS011;387;48.772;9.186;2023-08-24T04:35:02;14.60;;;11.80;;
809;SDS011;387;48.772;9.186;2023-08-24T04:37:28;15.67;;;10.83;;
809;SDS011;387;48.772;9.186;2023-08-24T04:39:53;16.33;;;11.57;;
809;SDS011;387;48.772;9.186;2023-08-24T04:42:19;17.60;;;11.07;;
809;SDS011;387;48.772;9.186;2023-08-24T04:44:44;15.13;;;11.90;;
809;SDS011;387;48.772;9.186;2023-08-24T04:47:10;16.23;;;10.97;;
809;SDS011;387;48.772;9.186;2023-08-24T04:49:36;17.30;;;12.53;;
809;SDS011;387;48.772;9.186;2023-08-24T04:52:02;16.93;;;11.30;;
809;SDS011;387;48.772;9.186;2023-08-24T04:54:29;18.57;;;12.03;;
809;SDS011;387;48.772;9.186;2023-08-24T04:56:55;14.07;;;11.37;;
809;SDS011;387;48.772;9.186;2023-08-24T04:59:21;15.70;;;12.00;;
809;SDS011;387;48.772;9.186;2023-08-24T05:01:46;14.87;;;11.50;;
809;SDS011;387;48.772;9.186;2023-08-24T05:04:12;21.63;;;12.70;;
809;SDS011;387;48.772;9.186;2023-08-24T05:06:37;17.60;;;11.97;;
809;SDS011;387;48.772;9.186;2023-08-24T05:09:04;16.30;;;11.53;;
809;SDS011;387;48.772;9.186;2023-08-24T05:11:29;17.50;;;11.80;;
809;SDS011;387;48.772;9.186;2023-08-24T05:13:55;15.27;;;11.10;;
809;SDS011;387;48.772;9.186;2023-08-24T05:16:21;15.83;;;11.80;;
809;SDS011;387;48.772;9.186;2023-08-24T05:18:46;17.20;;;11.80;;
809;SDS011;387;48.772;9.186;2023-08-24T05:21:12;13.60;;;11.57;;
809;SDS011;387;48.772;9.186;2023-08-24T05:23:38;18.13;;;10.93;;
809;SDS011;387;48.772;9.186;2023-08-24T05:26:03;16.93;;;10.63;;
809;SDS011;387;48.772;9.186;2023-08-24T05:28:30;13.67;;;11.10;;
809;SDS011;387;48.772;9.186;2023-08-24T05:30:56;18.10;;;10.57;;
809;SDS011;387;48.772;9.186;2023-08-24T05:33:22;15.27;;;12.27;;
809;SDS011;387;48.772;9.186;2023-08-24T05:35:49;13.67;;;10.47;;
809;SDS011;387;48.772;9.186;2023-08-24T05:38:16;12.90;;;10.63;;
809;SDS011;387;48.772;9.186;2023-08-24T05:40:42;18.40;;;11.73;;
809;SDS011;387;48.772;9.186;2023-08-24T05:43:09;16.07;;;11.10;;
809;SDS011;387;48.772;9.186;2023-08-24T05:45:35;12.37;;;10.27;;
809;SDS011;387;48.772;9.186;2023-08-24T05:48:02;17.63;;;11.60;;
809;SDS011;387;48.772;9.186;2023-08-24T05:50:28;16.03;;;10.27;;
809;SDS011;387;48.772;9.186;2023-08-24T05:52:53;13.97;;;10.57;;
809;SDS011;387;48.772;9.186;2023-08-24T05:55:19;15.43;;;10.23;;
809;SDS011;387;48.772;9.186;2023-08-24T05:57:44;18.20;;;10.90;;
809;SDS011;387;48.772;9.186;2023-08-24T06:00:10;13.30;;;10.07;;
809;SDS011;387;48.772;9.186;2023-08-24T06:02:36;14.60;;;10.50;;
809;SDS011;387;48.772;9.186;2023-08-24T06:05:02;14.53;;;10.03;;
809;SDS011;387;48.772;9.186;2023-08-24T06:07:29;12.13;;;9.67;;
809;SDS011;387;48.772;9.186;2023-08-24T06:09:56;16.67;;;10.00;;
809;SDS011;387;48.772;9.186;2023-08-24T06:12:21;21.53;;;10.97;;
809;SDS011;387;48.772;9.186;2023-08-24T06:14:47;18.77;;;9.87;;
809;SDS011;387;48.772;9.186;2023-08-24T06:17:13;19.03;;;10.07;;
809;SDS011;387;48.772;9.186;2023-08-24T06:19:38;12.50;;;9.60;;
809;SDS011;387;48.772;9.186;2023-08-24T06:22:04;15.13;;;9.63;;
809;SDS011;387;48.772;9.186;2023-08-24T06:24:29;12.57;;;9.70;;
809;SDS011;387;48.772;9.186;2023-08-24T06:26:55;13.53;;;8.97;;
809;SDS011;387;48.772;9.186;2023-08-24T06:29:21;12.70;;;9.03;;
809;SDS011;387;48.772;9.186;2023-08-24T06:31:47;12.93;;;9.50;;
809;SDS011;387;48.772;9.186;2023-08-24T06:34:12;15.60;;;9.20;;
809;SDS011;387;48.772;9.186;2023-08-24T06:36:38;10.90;;;9.37;;
809;SDS011;387;48.772;9.186;2023-08-24T06:39:03;15.00;;;9.87;;
809;SDS011;387;48.772;9.186;2023-08-24T06:41:32;15.03;;;9.83;;
809;SDS011;387;48.772;9.186;2023-08-24T06:43:59;14.57;;;9.60;;
809;SDS011;387;48.772;9.186;2023-08-24T06:46:25;11.23;;;8.80;;
809;SDS011;387;48.772;9.186;2023-08-24T06:48:51;12.00;;;9.30;;
809;SDS011;387;48.772;9.186;2023-08-24T06:51:19;15.87;;;10.10;;
809;SDS011;387;48.772;9.186;2023-08-24T06:53:45;13.40;;;10.70;;
809;SDS011;387;48.772;9.186;2023-08-24T06:56:14;14.27;;;10.83;;
809;SDS011;387;48.772;9.186;2023-08-24T06:58:40;24.00;;;12.87;;
809;SDS011;387;48.772;9.186;2023-08-24T07:01:07;17.73;;;11.37;;
809;SDS011;387;48.772;9.186;2023-08-24T07:03:33;14.00;;;10.80;;
809;SDS011;387;48.772;9.186;2023-08-24T07:05:59;14.80;;;10.10;;
809;SDS011;387;48.772;9.186;2023-08-24T07:08:25;17.60;;;10.73;;
809;SDS011;387;48.772;9.186;2023-08-24T07:10:50;14.40;;;9.93;;
809;SDS011;387;48.772;9.186;2023-08-24T07:13:16;20.30;;;10.70;;
809;SDS011;387;48.772;9.186;2023-08-24T07:15:42;17.40;;;10.67;;
809;SDS011;387;48.772;9.186;2023-08-24T07:18:08;15.47;;;10.40;;
809;SDS011;387;48.772;9.186;2023-08-24T07:20:34;14.43;;;9.50;;
809;SDS011;387;48.772;9.186;2023-08-24T07:23:00;13.30;;;10.07;;
809;SDS011;387;48.772;9.186;2023-08-24T07:25:26;13.30;;;10.00;;
809;SDS011;387;48.772;9.186;2023-08-24T07:27:55;12.10;;;10.00;;
809;SDS011;387;48.772;9.186;2023-08-24T07:30:27;14.20;;;10.70;;
809;SDS011;387;48.772;9.186;2023-08-24T07:32:53;18.83;;;11.90;;
809;SDS011;387;48.772;9.186;2023-08-24T07:35:19;16.97;;;10.43;;
809;SDS011;387;48.772;9.186;2023-08-24T07:37:46;21.30;;;12.23;;
809;SDS011;387;48.772;9.186;2023-08-24T07:40:13;18.53;;;12.17;;
809;SDS011;387;48.772;9.186;2023-08-24T07:42:42;13.60;;;10.40;;
809;SDS011;387;48.772;9.186;2023-08-24T07:45:09;18.00;;;10.93;;
809;SDS011;387;48.772;9.186;2023-08-24T07:47:35;16.37;;;11.73;;
809;SDS011;387;48.772;9.186;2023-08-24T07:50:00;15.27;;;11.23;;
809;SDS011;387;48.772;9.186;2023-08-24T07:52:26;19.30;;;13.30;;
809;SDS011;387;48.772;9.186;2023-08-24T07:54:53;23.57;;;13.10;;
809;SDS011;387;48.772;9.186;2023-08-24T07:57:20;19.03;;;13.70;;
809;SDS011;387;48.772;9.186;2023-08-24T07:59:46;22.63;;;13.00;;
809;SDS011;387;48.772;9.186;2023-08-24T08:02:11;15.93;;;12.17;;
809;SDS011;387;48.772;9.186;2023-08-24T08:04:40;19.50;;;12.60;;
809;SDS011;387;48.772;9.186;2023-08-24T08:07:05;14.70;;;10.97;;
809;SDS011;387;48.772;9.186;2023-08-24T08:09:31;15.50;;;11.40;;
809;SDS011;387;48.772;9.186;2023-08-24T08:11:56;15.00;;;11.13;;
809;SDS011;387;48.772;9.186;2023-08-24T08:14:22;14.53;;;11.33;;
809;SDS011;387;48.772;9.186;2023-08-24T08:16:48;16.00;;;11.10;;
809;SDS011;387;48.772;9.186;2023-08-24T08:19:14;16.83;;;10.87;;
809;SDS011;387;48.772;9.186;2023-08-24T08:21:39;13.23;;;9.87;;
809;SDS011;387;48.772;9.186;2023-08-24T08:24:05;15.20;;;10.33;;
809;SDS011;387;48.772;9.186;2023-08-24T08:26:31;17.70;;;9.80;;
809;SDS011;387;48.772;9.186;2023-08-24T08:28:56;15.33;;;10.30;;
809;SDS011;387;48.772;9.186;2023-08-24T08:31:22;14.03;;;9.83;;
809;SDS011;387;48.772;9.186;2023-08-24T08:33:48;13.80;;;9.80;;
809;SDS011;387;48.772;9.186;2023-08-24T08:36:13;14.13;;;10.33;;
809;SDS011;387;48.772;9.186;2023-08-24T08:38:39;13.00;;;9.07;;
809;SDS011;387;48.772;9.186;2023-08-24T08:41:05;12.80;;;9.10;;
809;SDS011;387;48.772;9.186;2023-08-24T08:43:30;15.63;;;9.40;;
809;SDS011;387;48.772;9.186;2023-08-24T08:45:56;17.27;;;10.00;;
809;SDS011;387;48.772;9.186;2023-08-24T08:48:23;18.80;;;9.40;;
809;SDS011;387;48.772;9.186;2023-08-24T08:50:50;16.17;;;10.03;;
809;SDS011;387;48.772;9.186;2023-08-24T08:53:20;15.87;;;10.33;;
809;SDS011;387;48.772;9.186;2023-08-24T08:55:46;14.83;;;10.00;;
809;SDS011;387;48.772;9.186;2023-08-24T08:58:13;12.10;;;9.30;;
809;SDS011;387;48.772;9.186;2023-08-24T09:00:39;12.83;;;8.87;;
809;SDS011;387;48.772;9.186;2023-08-24T09:03:05;16.97;;;9.93;;
809;SDS011;387;48.772;9.186;2023-08-24T09:05:31;12.50;;;8.97;;
809;SDS011;387;48.772;9.186;2023-08-24T09:07:57;10.30;;;9.00;;
809;SDS011;387;48.772;9.186;2023-08-24T09:10:24;11.33;;;8.83;;
809;SDS011;387;48.772;9.186;2023-08-24T09:12:50;11.80;;;9.80;;
809;SDS011;387;48.772;9.186;2023-08-24T09:15:23;11.63;;;9.27;;
809;SDS011;387;48.772;9.186;2023-08-24T09:17:50;14.90;;;9.90;;
809;SDS011;387;48.772;9.186;2023-08-24T09:20:16;12.13;;;9.70;;
809;SDS011;387;48.772;9.186;2023-08-24T09:22:42;12.40;;;9.37;;
809;SDS011;387;48.772;9.186;2023-08-24T09:25:09;17.90;;;9.50;;
809;SDS011;387;48.772;9.186;2023-08-24T09:27:36;19.87;;;8.77;;
809;SDS011;387;48.772;9.186;2023-08-24T09:30:01;14.87;;;8.87;;
809;SDS011;387;48.772;9.186;2023-08-24T09:32:27;17.10;;;8.70;;
809;SDS011;387;48.772;9.186;2023-08-24T09:34:54;13.07;;;9.13;;
809;SDS011;387;48.772;9.186;2023-08-24T09:37:20;11.70;;;8.60;;
809;SDS011;387;48.772;9.186;2023-08-24T09:39:46;12.87;;;9.20;;
809;SDS011;387;48.772;9.186;2023-08-24T09:42:12;17.20;;;10.20;;
809;SDS011;387;48.772;9.186;2023-08-24T09:44:43;11.20;;;9.27;;
809;SDS011;387;48.772;9.186;2023-08-24T09:47:10;12.40;;;8.63;;
809;SDS011;387;48.772;9.186;2023-08-24T09:49:36;16.23;;;10.20;;
809;SDS011;387;48.772;9.186;2023-08-24T09:52:02;9.60;;;9.10;;
809;SDS011;387;48.772;9.186;2023-08-24T09:54:32;16.30;;;9.90;;
809;SDS011;387;48.772;9.186;2023-08-24T09:57:02;12.20;;;8.67;;
809;SDS011;387;48.772;9.186;2023-08-24T09:59:29;15.00;;;9.00;;
809;SDS011;387;48.772;9.186;2023-08-24T10:01:57;17.30;;;9.50;;
809;SDS011;387;48.772;9.186;2023-08-24T10:04:28;12.57;;;9.37;;
809;SDS011;387;48.772;9.186;2023-08-24T10:07:08;13.17;;;9.57;;
809;SDS011;387;48.772;9.186;2023-08-24T10:12:23;15.00;;;10.60;;
809;SDS011;387;48.772;9.186;2023-08-24T10:17:20;12.63;;;10.07;;
809;SDS011;387;48.772;9.186;2023-08-24T10:19:48;14.93;;;10.07;;
809;SDS011;387;48.772;9.186;2023-08-24T10:22:16;11.60;;;9.40;;
809;SDS011;387;48.772;9.186;2023-08-24T10:24:49;12.73;;;9.40;;
809;SDS011;387;48.772;9.186;2023-08-24T10:27:16;13.20;;;10.03;;
809;SDS011;387;48.772;9.186;2023-08-24T10:29:42;15.43;;;10.20;;
809;SDS011;387;48.772;9.186;2023-08-24T10:32:08;13.37;;;10.73;;
809;SDS011;387;48.772;9.186;2023-08-24T10:34:34;12.67;;;10.80;;
809;SDS011;387;48.772;9.186;2023-08-24T10:37:10;13.90;;;10.23;;
809;SDS011;387;48.772;9.186;2023-08-24T10:39:37;15.53;;;11.23;;
809;SDS011;387;48.772;9.186;2023-08-24T10:42:12;14.93;;;10.60;;
809;SDS011;387;48.772;9.186;2023-08-24T10:44:39;13.53;;;10.00;;
809;SDS011;387;48.772;9.186;2023-08-24T10:47:15;11.90;;;9.33;;
809;SDS011;387;48.772;9.186;2023-08-24T10:49:41;13.80;;;10.27;;
809;SDS011;387;48.772;9.186;2023-08-24T10:55:00;13.20;;;10.50;;
809;SDS011;387;48.772;9.186;2023-08-24T10:57:37;13.17;;;9.97;;
809;SDS011;387;48.772;9.186;2023-08-24T11:00:06;14.90;;;10.43;;
809;SDS011;387;48.772;9.186;2023-08-24T11:02:50;12.53;;;9.27;;
809;SDS011;387;48.772;9.186;2023-08-24T11:05:29;15.30;;;10.33;;
809;SDS011;387;48.772;9.186;2023-08-24T11:07:56;12.40;;;10.63;;
809;SDS011;387;48.772;9.186;2023-08-24T11:10:34;13.33;;;10.60;;
809;SDS011;387;48.772;9.186;2023-08-24T11:13:06;9.83;;;9.30;;
809;SDS011;387;48.772;9.186;2023-08-24T11:20:37;13.20;;;9.90;;
809;SDS011;387;48.772;9.186;2023-08-24T11:23:04;13.40;;;10.07;;
809;SDS011;387;48.772;9.186;2023-08-24T11:25:30;14.20;;;10.13;;
809;SDS011;387;48.772;9.186;2023-08-24T11:28:01;14.93;;;10.37;;
809;SDS011;387;48.772;9.186;2023-08-24T11:30:29;17.10;;;10.30;;
809;SDS011;387;48.772;9.186;2023-08-24T11:32:56;14.70;;;10.70;;
809;SDS011;387;48.772;9.186;2023-08-24T11:35:22;13.80;;;10.70;;
809;SDS011;387;48.772;9.186;2023-08-24T11:37:51;16.03;;;9.53;;
809;SDS011;387;48.772;9.186;2023-08-24T11:40:17;13.97;;;9.93;;
809;SDS011;387;48.772;9.186;2023-08-24T11:42:45;16.63;;;9.97;;
809;SDS011;387;48.772;9.186;2023-08-24T11:45:11;13.93;;;10.10;;
809;SDS011;387;48.772;9.186;2023-08-24T11:47:38;16.80;;;9.97;;
809;SDS011;387;48.772;9.186;2023-08-24T11:50:04;13.53;;;9.30;;
809;SDS011;387;48.772;9.186;2023-08-24T11:52:30;14.77;;;10.07;;
809;SDS011;387;48.772;9.186;2023-08-24T11:55:00;20.03;;;10.40;;
809;SDS011;387;48.772;9.186;2023-08-24T11:57:26;13.10;;;9.73;;
809;SDS011;387;48.772;9.186;2023-08-24T11:59:53;19.10;;;9.70;;
809;SDS011;387;48.772;9.186;2023-08-24T12:02:20;19.90;;;11.00;;
809;SDS011;387;48.772;9.186;2023-08-24T12:04:48;13.80;;;8.93;;
809;SDS011;387;48.772;9.186;2023-08-24T12:07:16;14.13;;;9.40;;
809;SDS011;387;48.772;9.186;2023-08-24T12:09:42;14.17;;;9.73;;
809;SDS011;387;48.772;9.186;2023-08-24T12:12:14;18.47;;;11.50;;
809;SDS011;387;48.772;9.186;2023-08-24T12:14:41;14.40;;;10.60;;
809;SDS011;387;48.772;9.186;2023-08-24T12:17:07;13.63;;;9.53;;
809;SDS011;387;48.772;9.186;2023-08-24T12:19:33;14.60;;;10.03;;
809;SDS011;387;48.772;9.186;2023-08-24T12:21:59;12.40;;;9.40;;
809;SDS011;387;48.772;9.186;2023-08-24T12:24:25;14.50;;;9.90;;
809;SDS011;387;48.772;9.186;2023-08-24T12:26:56;10.90;;;9.07;;
809;SDS011;387;48.772;9.186;2023-08-24T12:29:23;17.17;;;9.77;;
809;SDS011;387;48.772;9.186;2023-08-24T12:31:49;14.60;;;9.23;;
809;SDS011;387;48.772;9.186;2023-08-24T12:34:15;13.30;;;9.80;;
809;SDS011;387;48.772;9.186;2023-08-24T12:36:41;14.90;;;9.77;;
809;SDS011;387;48.772;9.186;2023-08-24T12:39:08;12.23;;;8.80;;
809;SDS011;387;48.772;9.186;2023-08-24T12:41:37;13.83;;;8.80;;
809;SDS011;387;48.772;9.186;2023-08-24T12:44:03;15.63;;;10.30;;
809;SDS011;387;48.772;9.186;2023-08-24T12:46:33;17.30;;;9.37;;
809;SDS011;387;48.772;9.186;2023-08-24T12:49:00;14.60;;;10.17;;
809;SDS011;387;48.772;9.186;2023-08-24T12:51:26;12.00;;;8.50;;
809;SDS011;387;48.772;9.186;2023-08-24T12:53:51;13.80;;;9.43;;
809;SDS011;387;48.772;9.186;2023-08-24T12:56:17;12.57;;;9.03;;
809;SDS011;387;48.772;9.186;2023-08-24T12:58:42;14.90;;;9.10;;
809;SDS011;387;48.772;9.186;2023-08-24T13:01:08;13.33;;;9.33;;
809;SDS011;387;48.772;9.186;2023-08-24T13:03:34;11.17;;;8.60;;
809;SDS011;387;48.772;9.186;2023-08-24T13:06:01;14.83;;;8.67;;
809;SDS011;387;48.772;9.186;2023-08-24T13:08:27;11.57;;;9.00;;
809;SDS011;387;48.772;9.186;2023-08-24T13:10:55;12.77;;;8.70;;
809;SDS011;387;48.772;9.186;2023-08-24T13:13:21;15.97;;;9.10;;
809;SDS011;387;48.772;9.186;2023-08-24T13:15:48;12.43;;;8.37;;
809;SDS011;387;48.772;9.186;2023-08-24T13:18:15;15.73;;;8.83;;
809;SDS011;387;48.772;9.186;2023-08-24T13:20:41;11.67;;;8.50;;
809;SDS011;387;48.772;9.186;2023-08-24T13:23:07;12.40;;;8.80;;
809;SDS011;387;48.772;9.186;2023-08-24T13:25:33;13.60;;;8.03;;
809;SDS011;387;48.772;9.186;2023-08-24T13:27:58;15.73;;;9.30;;
809;SDS011;387;48.772;9.186;2023-08-24T13:30:24;12.27;;;8.07;;
809;SDS011;387;48.772;9.186;2023-08-24T13:32:49;12.60;;;8.77;;
809;SDS011;387;48.772;9.186;2023-08-24T13:35:15;13.73;;;8.63;;
809;SDS011;387;48.772;9.186;2023-08-24T13:37:41;12.97;;;8.60;;
809;SDS011;387;48.772;9.186;2023-08-24T13:40:06;16.90;;;8.83;;
809;SDS011;387;48.772;9.186;2023-08-24T13:42:33;15.97;;;8.97;;
809;SDS011;387;48.772;9.186;2023-08-24T13:44:58;15.97;;;8.23;;
809;SDS011;387;48.772;9.186;2023-08-24T13:47:24;17.03;;;8.23;;
809;SDS011;387;48.772;9.186;2023-08-24T13:49:49;14.40;;;8.60;;
809;SDS011;387;48.772;9.186;2023-08-24T13:52:15;15.80;;;8.67;;
809;SDS011;387;48.772;9.186;2023-08-24T13:54:43;10.70;;;8.23;;
809;SDS011;387;48.772;9.186;2023-08-24T13:57:12;14.67;;;8.83;;
809;SDS011;387;48.772;9.186;2023-08-24T13:59:37;13.40;;;8.33;;
809;SDS011;387;48.772;9.186;2023-08-24T14:02:04;14.57;;;8.07;;
809;SDS011;387;48.772;9.186;2023-08-24T14:04:30;14.33;;;8.13;;
809;SDS011;387;48.772;9.186;2023-08-24T14:06:56;21.43;;;8.43;;
809;SDS011;387;48.772;9.186;2023-08-24T14:09:22;14.87;;;8.70;;
809;SDS011;387;48.772;9.186;2023-08-24T14:11:47;11.87;;;7.80;;
809;SDS011;387;48.772;9.186;2023-08-24T14:14:13;17.07;;;7.47;;
809;SDS011;387;48.772;9.186;2023-08-24T14:16:39;10.97;;;6.90;;
809;SDS011;387;48.772;9.186;2023-08-24T14:19:04;14.23;;;7.90;;
809;SDS011;387;48.772;9.186;2023-08-24T14:21:30;12.23;;;7.37;;
809;SDS011;387;48.772;9.186;2023-08-24T14:23:56;14.17;;;7.40;;
809;SDS011;387;48.772;9.186;2023-08-24T14:26:23;12.47;;;7.20;;
809;SDS011;387;48.772;9.186;2023-08-24T14:31:14;21.10;;;6.63;;
809;SDS011;387;48.772;9.186;2023-08-24T14:33:43;20.87;;;7.00;;
809;SDS011;387;48.772;9.186;2023-08-24T14:36:09;17.50;;;7.50;;
809;SDS011;387;48.772;9.186;2023-08-24T14:38:37;14.80;;;7.03;;
809;SDS011;387;48.772;9.186;2023-08-24T14:41:05;11.43;;;7.10;;
809;SDS011;387;48.772;9.186;2023-08-24T14:43:31;14.20;;;6.87;;
809;SDS011;387;48.772;9.186;2023-08-24T14:45:56;18.60;;;7.63;;
809;SDS011;387;48.772;9.186;2023-08-24T14:48:22;21.57;;;7.60;;
809;SDS011;387;48.772;9.186;2023-08-24T14:50:48;13.43;;;6.80;;
809;SDS011;387;48.772;9.186;2023-08-24T14:53:13;11.30;;;7.10;;
809;SDS011;387;48.772;9.186;2023-08-24T14:55:39;14.37;;;8.07;;
809;SDS011;387;48.772;9.186;2023-08-24T14:58:05;15.60;;;8.10;;
809;SDS011;387;48.772;9.186;2023-08-24T15:00:31;21.20;;;9.67;;
809;SDS011;387;48.772;9.186;2023-08-24T15:02:57;25.90;;;10.20;;
809;SDS011;387;48.772;9.186;2023-08-24T15:05:23;19.00;;;10.03;;
809;SDS011;387;48.772;9.186;2023-08-24T15:07:49;20.60;;;11.00;;
809;SDS011;387;48.772;9.186;2023-08-24T15:10:15;16.23;;;11.10;;
809;SDS011;387;48.772;9.186;2023-08-24T15:12:42;26.23;;;11.13;;
809;SDS011;387;48.772;9.186;2023-08-24T15:15:08;11.80;;;6.30;;
809;SDS011;387;48.772;9.186;2023-08-24T15:17:35;12.50;;;5.80;;
809;SDS011;387;48.772;9.186;2023-08-24T15:20:01;11.87;;;5.57;;
809;SDS011;387;48.772;9.186;2023-08-24T15:22:30;13.90;;;5.43;;
809;SDS011;387;48.772;9.186;2023-08-24T15:24:56;9.67;;;5.47;;
809;SDS011;387;48.772;9.186;2023-08-24T15:27:25;8.50;;;5.10;;
809;SDS011;387;48.772;9.186;2023-08-24T15:29:51;10.03;;;6.00;;
809;SDS011;387;48.772;9.186;2023-08-24T15:32:17;10.13;;;6.80;;
809;SDS011;387;48.772;9.186;2023-08-24T15:34:43;12.00;;;6.93;;
809;SDS011;387;48.772;9.186;2023-08-24T15:37:08;11.40;;;6.90;;
809;SDS011;387;48.772;9.186;2023-08-24T15:39:35;12.90;;;6.50;;